sensor_id;sensor_type;location;lat;lon;timestamp;P1;durP1;ratioP1;P2;durP2;ratioP2
47760;SDS011;33524;55.434;38.520;2024-02-04T00:00:32;19.20;;;9.60;;
47760;SDS011;33524;55.434;38.520;2024-02-04T00:03:01;20.17;;;9.57;;
47760;SDS011;33524;55.434;38.520;2024-02-04T00:05:28;17.30;;;9.45;;
47760;SDS011;33524;55.434;38.520;2024-02-04T00:07:57;16.52;;;8.90;;
47760;SDS011;33524;55.434;38.520;2024-02-04T00:10:25;20.08;;;9.93;;
47760;SDS011;33524;55.434;38.520;2024-02-04T00:12:54;18.90;;;10.15;;
47760;SDS011;33524;55.434;38.520;2024-02-04T00:15:22;16.52;;;7.68;;
47760;SDS011;33524;55.434;38.520;2024-02-04T00:17:51;18.90;;;10.50;;
47760;SDS011;33524;55.434;38.520;2024-02-04T00:20:19;19.30;;;8.75;;
47760;SDS011;33524;55.434;38.520;2024-02-04T00:22:47;16.17;;;7.97;;
47760;SDS011;33524;55.434;38.520;2024-02-04T00:25:15;18.25;;;10.10;;
47760;SDS011;33524;55.434;38.520;2024-02-04T00:27:46;16.90;;;8.68;;
47760;SDS011;33524;55.434;38.520;2024-02-04T00:30:15;18.35;;;9.63;;
47760;SDS011;33524;55.434;38.520;2024-02-04T00:32:43;16.48;;;9.23;;
47760;SDS011;33524;55.434;38.520;2024-02-04T00:35:11;21.10;;;9.85;;
47760;SDS011;33524;55.434;38.520;2024-02-04T00:37:40;17.23;;;9.82;;
47760;SDS011;33524;55.434;38.520;2024-02-04T00:40:08;13.52;;;7.85;;
47760;SDS011;33524;55.434;38.520;2024-02-04T00:42:37;20.33;;;10.75;;
47760;SDS011;33524;55.434;38.520;2024-02-04T00:45:06;18.48;;;10.02;;
47760;SDS011;33524;55.434;38.520;2024-02-04T00:47:35;17.15;;;9.88;;
47760;SDS011;33524;55.434;38.520;2024-02-04T00:50:03;16.02;;;9.05;;
47760;SDS011;33524;55.434;38.520;2024-02-04T00:52:32;18.58;;;9.88;;
47760;SDS011;33524;55.434;38.520;2024-02-04T00:55:00;19.20;;;10.05;;
47760;SDS011;33524;55.434;38.520;2024-02-04T00:57:29;20.00;;;9.75;;
47760;SDS011;33524;55.434;38.520;2024-02-04T00:59:57;18.08;;;9.48;;
47760;SDS011;33524;55.434;38.520;2024-02-04T01:02:26;15.40;;;8.70;;
47760;SDS011;33524;55.434;38.520;2024-02-04T01:04:54;16.37;;;8.98;;
47760;SDS011;33524;55.434;38.520;2024-02-04T01:07:22;16.90;;;9.02;;
47760;SDS011;33524;55.434;38.520;2024-02-04T01:09:51;16.10;;;9.70;;
47760;SDS011;33524;55.434;38.520;2024-02-04T01:12:19;17.55;;;8.88;;
47760;SDS011;33524;55.434;38.520;2024-02-04T01:14:47;17.02;;;8.60;;
47760;SDS011;33524;55.434;38.520;2024-02-04T01:17:15;16.05;;;8.80;;
47760;SDS011;33524;55.434;38.520;2024-02-04T01:19:43;14.87;;;8.95;;
47760;SDS011;33524;55.434;38.520;2024-02-04T01:22:12;15.15;;;8.68;;
47760;SDS011;33524;55.434;38.520;2024-02-04T01:24:40;18.55;;;9.27;;
47760;SDS011;33524;55.434;38.520;2024-02-04T01:27:08;15.48;;;9.57;;
47760;SDS011;33524;55.434;38.520;2024-02-04T01:29:37;15.60;;;8.80;;
47760;SDS011;33524;55.434;38.520;2024-02-04T01:32:05;17.30;;;8.50;;
47760;SDS011;33524;55.434;38.520;2024-02-04T01:34:33;12.77;;;8.13;;
47760;SDS011;33524;55.434;38.520;2024-02-04T01:37:02;15.43;;;8.32;;
47760;SDS011;33524;55.434;38.520;2024-02-04T01:39:31;13.95;;;7.57;;
47760;SDS011;33524;55.434;38.520;2024-02-04T01:41:59;13.93;;;8.02;;
47760;SDS011;33524;55.434;38.520;2024-02-04T01:44:28;13.27;;;7.82;;
47760;SDS011;33524;55.434;38.520;2024-02-04T01:46:56;11.15;;;7.62;;
47760;SDS011;33524;55.434;38.520;2024-02-04T01:49:25;11.40;;;6.97;;
47760;SDS011;33524;55.434;38.520;2024-02-04T01:51:53;12.15;;;7.57;;
47760;SDS011;33524;55.434;38.520;2024-02-04T01:54:22;13.05;;;7.22;;
47760;SDS011;33524;55.434;38.520;2024-02-04T01:56:52;12.70;;;8.30;;
47760;SDS011;33524;55.434;38.520;2024-02-04T01:59:23;12.20;;;7.47;;
47760;SDS011;33524;55.434;38.520;2024-02-04T02:02:01;14.55;;;8.45;;
47760;SDS011;33524;55.434;38.520;2024-02-04T02:04:29;12.63;;;8.23;;
47760;SDS011;33524;55.434;38.520;2024-02-04T02:06:57;11.55;;;7.00;;
47760;SDS011;33524;55.434;38.520;2024-02-04T02:12:03;13.50;;;6.75;;
47760;SDS011;33524;55.434;38.520;2024-02-04T02:14:39;13.68;;;7.32;;
47760;SDS011;33524;55.434;38.520;2024-02-04T02:17:12;11.70;;;6.30;;
47760;SDS011;33524;55.434;38.520;2024-02-04T02:20:09;12.85;;;7.10;;
47760;SDS011;33524;55.434;38.520;2024-02-04T02:22:47;16.12;;;7.32;;
47760;SDS011;33524;55.434;38.520;2024-02-04T02:25:19;12.35;;;6.95;;
47760;SDS011;33524;55.434;38.520;2024-02-04T02:27:49;9.30;;;5.72;;
47760;SDS011;33524;55.434;38.520;2024-02-04T02:30:18;15.02;;;7.30;;
47760;SDS011;33524;55.434;38.520;2024-02-04T02:32:48;14.43;;;7.22;;
47760;SDS011;33524;55.434;38.520;2024-02-04T02:35:20;8.13;;;4.65;;
47760;SDS011;33524;55.434;38.520;2024-02-04T02:43:10;9.55;;;5.37;;
47760;SDS011;33524;55.434;38.520;2024-02-04T02:45:41;9.82;;;5.97;;
47760;SDS011;33524;55.434;38.520;2024-02-04T02:48:11;9.05;;;5.32;;
47760;SDS011;33524;55.434;38.520;2024-02-04T02:50:39;11.12;;;6.20;;
47760;SDS011;33524;55.434;38.520;2024-02-04T02:53:07;11.55;;;6.95;;
47760;SDS011;33524;55.434;38.520;2024-02-04T02:55:36;12.73;;;5.53;;
47760;SDS011;33524;55.434;38.520;2024-02-04T02:58:04;9.38;;;5.68;;
47760;SDS011;33524;55.434;38.520;2024-02-04T03:00:32;10.98;;;6.03;;
47760;SDS011;33524;55.434;38.520;2024-02-04T03:03:01;11.38;;;6.43;;
47760;SDS011;33524;55.434;38.520;2024-02-04T03:05:29;9.07;;;6.03;;
47760;SDS011;33524;55.434;38.520;2024-02-04T03:07:58;11.48;;;6.00;;
47760;SDS011;33524;55.434;38.520;2024-02-04T03:10:27;8.50;;;5.50;;
47760;SDS011;33524;55.434;38.520;2024-02-04T03:12:55;9.10;;;5.43;;
47760;SDS011;33524;55.434;38.520;2024-02-04T03:15:23;9.00;;;4.90;;
47760;SDS011;33524;55.434;38.520;2024-02-04T03:17:52;7.47;;;4.75;;
47760;SDS011;33524;55.434;38.520;2024-02-04T03:20:20;10.73;;;5.45;;
47760;SDS011;33524;55.434;38.520;2024-02-04T03:22:48;7.15;;;3.97;;
47760;SDS011;33524;55.434;38.520;2024-02-04T03:25:17;6.93;;;4.35;;
47760;SDS011;33524;55.434;38.520;2024-02-04T03:27:45;6.28;;;3.83;;
47760;SDS011;33524;55.434;38.520;2024-02-04T03:30:14;6.12;;;3.85;;
47760;SDS011;33524;55.434;38.520;2024-02-04T03:32:43;4.70;;;2.80;;
47760;SDS011;33524;55.434;38.520;2024-02-04T03:35:11;6.68;;;3.55;;
47760;SDS011;33524;55.434;38.520;2024-02-04T03:37:39;6.97;;;4.00;;
47760;SDS011;33524;55.434;38.520;2024-02-04T03:40:08;6.90;;;3.85;;
47760;SDS011;33524;55.434;38.520;2024-02-04T03:42:37;5.78;;;4.05;;
47760;SDS011;33524;55.434;38.520;2024-02-04T03:45:05;5.62;;;3.97;;
47760;SDS011;33524;55.434;38.520;2024-02-04T03:47:34;4.80;;;2.97;;
47760;SDS011;33524;55.434;38.520;2024-02-04T03:50:02;5.87;;;3.50;;
47760;SDS011;33524;55.434;38.520;2024-02-04T03:52:31;6.20;;;3.80;;
47760;SDS011;33524;55.434;38.520;2024-02-04T03:54:59;5.45;;;3.37;;
47760;SDS011;33524;55.434;38.520;2024-02-04T03:57:29;5.68;;;3.35;;
47760;SDS011;33524;55.434;38.520;2024-02-04T03:59:57;5.93;;;3.20;;
47760;SDS011;33524;55.434;38.520;2024-02-04T04:02:26;5.60;;;3.42;;
47760;SDS011;33524;55.434;38.520;2024-02-04T04:04:54;5.40;;;3.60;;
47760;SDS011;33524;55.434;38.520;2024-02-04T04:07:22;7.10;;;3.78;;
47760;SDS011;33524;55.434;38.520;2024-02-04T04:09:50;3.17;;;2.17;;
47760;SDS011;33524;55.434;38.520;2024-02-04T04:12:19;5.20;;;2.83;;
47760;SDS011;33524;55.434;38.520;2024-02-04T04:14:47;5.28;;;3.40;;
47760;SDS011;33524;55.434;38.520;2024-02-04T04:17:15;4.72;;;3.03;;
47760;SDS011;33524;55.434;38.520;2024-02-04T04:19:43;5.65;;;3.47;;
47760;SDS011;33524;55.434;38.520;2024-02-04T04:22:12;5.18;;;3.37;;
47760;SDS011;33524;55.434;38.520;2024-02-04T04:24:40;4.93;;;3.62;;
47760;SDS011;33524;55.434;38.520;2024-02-04T04:27:09;4.70;;;3.60;;
47760;SDS011;33524;55.434;38.520;2024-02-04T04:29:36;5.28;;;2.83;;
47760;SDS011;33524;55.434;38.520;2024-02-04T04:32:05;5.57;;;3.33;;
47760;SDS011;33524;55.434;38.520;2024-02-04T04:34:33;5.20;;;2.70;;
47760;SDS011;33524;55.434;38.520;2024-02-04T04:37:01;3.87;;;2.65;;
47760;SDS011;33524;55.434;38.520;2024-02-04T04:39:30;4.28;;;2.40;;
47760;SDS011;33524;55.434;38.520;2024-02-04T04:41:58;4.55;;;2.60;;
47760;SDS011;33524;55.434;38.520;2024-02-04T04:44:26;3.72;;;2.35;;
47760;SDS011;33524;55.434;38.520;2024-02-04T04:46:55;5.50;;;1.98;;
47760;SDS011;33524;55.434;38.520;2024-02-04T04:49:23;2.78;;;1.90;;
47760;SDS011;33524;55.434;38.520;2024-02-04T04:51:51;3.85;;;2.30;;
47760;SDS011;33524;55.434;38.520;2024-02-04T04:54:19;3.65;;;2.30;;
47760;SDS011;33524;55.434;38.520;2024-02-04T04:56:48;3.85;;;2.78;;
47760;SDS011;33524;55.434;38.520;2024-02-04T04:59:16;3.80;;;2.08;;
47760;SDS011;33524;55.434;38.520;2024-02-04T05:01:45;3.85;;;2.28;;
47760;SDS011;33524;55.434;38.520;2024-02-04T05:04:17;2.65;;;1.87;;
47760;SDS011;33524;55.434;38.520;2024-02-04T05:06:51;4.10;;;2.20;;
47760;SDS011;33524;55.434;38.520;2024-02-04T05:09:20;3.83;;;2.30;;
47760;SDS011;33524;55.434;38.520;2024-02-04T05:11:48;3.00;;;1.80;;
47760;SDS011;33524;55.434;38.520;2024-02-04T05:14:16;4.55;;;2.25;;
47760;SDS011;33524;55.434;38.520;2024-02-04T05:16:44;3.83;;;2.12;;
47760;SDS011;33524;55.434;38.520;2024-02-04T05:19:13;2.78;;;1.80;;
47760;SDS011;33524;55.434;38.520;2024-02-04T05:21:41;3.50;;;1.83;;
47760;SDS011;33524;55.434;38.520;2024-02-04T05:24:10;5.85;;;2.83;;
47760;SDS011;33524;55.434;38.520;2024-02-04T05:26:38;3.40;;;2.10;;
47760;SDS011;33524;55.434;38.520;2024-02-04T05:29:06;3.37;;;2.15;;
47760;SDS011;33524;55.434;38.520;2024-02-04T05:31:39;2.97;;;2.15;;
47760;SDS011;33524;55.434;38.520;2024-02-04T05:34:11;3.12;;;2.10;;
47760;SDS011;33524;55.434;38.520;2024-02-04T05:36:40;2.80;;;2.10;;
47760;SDS011;33524;55.434;38.520;2024-02-04T05:39:10;3.33;;;2.10;;
47760;SDS011;33524;55.434;38.520;2024-02-04T05:41:42;3.60;;;2.53;;
47760;SDS011;33524;55.434;38.520;2024-02-04T05:44:11;3.85;;;2.10;;
47760;SDS011;33524;55.434;38.520;2024-02-04T05:46:39;3.70;;;2.30;;
47760;SDS011;33524;55.434;38.520;2024-02-04T05:49:07;4.43;;;2.25;;
47760;SDS011;33524;55.434;38.520;2024-02-04T05:51:39;1.58;;;1.40;;
47760;SDS011;33524;55.434;38.520;2024-02-04T05:54:08;3.17;;;2.22;;
47760;SDS011;33524;55.434;38.520;2024-02-04T05:56:36;2.20;;;1.50;;
47760;SDS011;33524;55.434;38.520;2024-02-04T05:59:04;2.37;;;1.65;;
47760;SDS011;33524;55.434;38.520;2024-02-04T06:01:33;2.90;;;1.50;;
47760;SDS011;33524;55.434;38.520;2024-02-04T06:04:01;1.85;;;1.30;;
47760;SDS011;33524;55.434;38.520;2024-02-04T06:06:30;1.73;;;1.23;;
47760;SDS011;33524;55.434;38.520;2024-02-04T06:08:58;2.55;;;1.77;;
47760;SDS011;33524;55.434;38.520;2024-02-04T06:11:27;1.98;;;1.73;;
47760;SDS011;33524;55.434;38.520;2024-02-04T06:13:55;1.58;;;1.37;;
47760;SDS011;33524;55.434;38.520;2024-02-04T06:16:23;1.90;;;1.40;;
47760;SDS011;33524;55.434;38.520;2024-02-04T06:18:51;2.97;;;2.00;;
47760;SDS011;33524;55.434;38.520;2024-02-04T06:21:23;5.35;;;3.03;;
47760;SDS011;33524;55.434;38.520;2024-02-04T06:23:52;3.70;;;2.30;;
47760;SDS011;33524;55.434;38.520;2024-02-04T06:26:20;2.45;;;1.92;;
47760;SDS011;33524;55.434;38.520;2024-02-04T06:28:48;2.28;;;1.92;;
47760;SDS011;33524;55.434;38.520;2024-02-04T06:31:19;2.80;;;1.98;;
47760;SDS011;33524;55.434;38.520;2024-02-04T06:33:47;1.83;;;1.37;;
47760;SDS011;33524;55.434;38.520;2024-02-04T06:36:15;1.85;;;1.60;;
47760;SDS011;33524;55.434;38.520;2024-02-04T06:38:44;3.00;;;1.58;;
47760;SDS011;33524;55.434;38.520;2024-02-04T06:41:12;3.37;;;1.92;;
47760;SDS011;33524;55.434;38.520;2024-02-04T06:43:40;1.23;;;1.00;;
47760;SDS011;33524;55.434;38.520;2024-02-04T06:46:08;1.33;;;1.17;;
47760;SDS011;33524;55.434;38.520;2024-02-04T06:48:37;1.92;;;1.30;;
47760;SDS011;33524;55.434;38.520;2024-02-04T06:51:05;2.28;;;1.35;;
47760;SDS011;33524;55.434;38.520;2024-02-04T06:53:33;1.48;;;1.05;;
47760;SDS011;33524;55.434;38.520;2024-02-04T06:56:01;3.40;;;1.23;;
47760;SDS011;33524;55.434;38.520;2024-02-04T06:58:29;1.80;;;1.10;;
47760;SDS011;33524;55.434;38.520;2024-02-04T07:00:58;1.77;;;1.20;;
47760;SDS011;33524;55.434;38.520;2024-02-04T07:03:26;3.35;;;1.20;;
47760;SDS011;33524;55.434;38.520;2024-02-04T07:05:55;1.50;;;1.10;;
47760;SDS011;33524;55.434;38.520;2024-02-04T07:08:23;1.15;;;0.90;;
47760;SDS011;33524;55.434;38.520;2024-02-04T07:10:51;1.35;;;0.88;;
47760;SDS011;33524;55.434;38.520;2024-02-04T07:13:21;1.20;;;1.10;;
47760;SDS011;33524;55.434;38.520;2024-02-04T07:15:49;1.15;;;1.05;;
47760;SDS011;33524;55.434;38.520;2024-02-04T07:18:17;1.12;;;1.02;;
47760;SDS011;33524;55.434;38.520;2024-02-04T07:20:50;2.20;;;1.25;;
47760;SDS011;33524;55.434;38.520;2024-02-04T07:23:18;1.40;;;1.17;;
47760;SDS011;33524;55.434;38.520;2024-02-04T07:25:46;2.10;;;1.27;;
47760;SDS011;33524;55.434;38.520;2024-02-04T07:28:14;2.50;;;1.30;;
47760;SDS011;33524;55.434;38.520;2024-02-04T07:30:42;2.37;;;1.50;;
47760;SDS011;33524;55.434;38.520;2024-02-04T07:33:10;2.62;;;1.77;;
47760;SDS011;33524;55.434;38.520;2024-02-04T07:35:39;2.50;;;1.73;;
47760;SDS011;33524;55.434;38.520;2024-02-04T07:38:07;3.15;;;2.05;;
47760;SDS011;33524;55.434;38.520;2024-02-04T07:40:35;3.03;;;1.87;;
47760;SDS011;33524;55.434;38.520;2024-02-04T07:43:03;3.78;;;2.25;;
47760;SDS011;33524;55.434;38.520;2024-02-04T07:45:32;2.80;;;2.08;;
47760;SDS011;33524;55.434;38.520;2024-02-04T07:48:00;2.87;;;2.25;;
47760;SDS011;33524;55.434;38.520;2024-02-04T07:50:30;6.35;;;3.15;;
47760;SDS011;33524;55.434;38.520;2024-02-04T07:52:58;4.90;;;2.33;;
47760;SDS011;33524;55.434;38.520;2024-02-04T07:55:26;5.32;;;3.20;;
47760;SDS011;33524;55.434;38.520;2024-02-04T07:57:54;4.55;;;3.47;;
47760;SDS011;33524;55.434;38.520;2024-02-04T08:00:23;3.67;;;2.67;;
47760;SDS011;33524;55.434;38.520;2024-02-04T08:02:51;5.65;;;3.85;;
47760;SDS011;33524;55.434;38.520;2024-02-04T08:05:20;4.55;;;3.10;;
47760;SDS011;33524;55.434;38.520;2024-02-04T08:07:48;5.40;;;3.03;;
47760;SDS011;33524;55.434;38.520;2024-02-04T08:10:17;4.75;;;3.53;;
47760;SDS011;33524;55.434;38.520;2024-02-04T08:12:45;3.47;;;2.30;;
47760;SDS011;33524;55.434;38.520;2024-02-04T08:15:19;4.47;;;2.97;;
47760;SDS011;33524;55.434;38.520;2024-02-04T08:17:48;9.88;;;6.07;;
47760;SDS011;33524;55.434;38.520;2024-02-04T08:20:17;7.07;;;4.00;;
47760;SDS011;33524;55.434;38.520;2024-02-04T08:22:46;4.70;;;3.28;;
47760;SDS011;33524;55.434;38.520;2024-02-04T08:25:15;5.12;;;3.28;;
47760;SDS011;33524;55.434;38.520;2024-02-04T08:27:45;4.97;;;3.45;;
47760;SDS011;33524;55.434;38.520;2024-02-04T08:30:13;4.25;;;2.92;;
47760;SDS011;33524;55.434;38.520;2024-02-04T08:32:41;7.18;;;2.65;;
47760;SDS011;33524;55.434;38.520;2024-02-04T08:35:10;4.72;;;2.75;;
47760;SDS011;33524;55.434;38.520;2024-02-04T08:37:38;3.95;;;2.70;;
47760;SDS011;33524;55.434;38.520;2024-02-04T08:40:07;3.58;;;2.45;;
47760;SDS011;33524;55.434;38.520;2024-02-04T08:42:35;5.40;;;3.75;;
47760;SDS011;33524;55.434;38.520;2024-02-04T08:45:05;4.55;;;3.55;;
47760;SDS011;33524;55.434;38.520;2024-02-04T08:47:33;10.43;;;4.85;;
47760;SDS011;33524;55.434;38.520;2024-02-04T08:50:02;5.90;;;4.05;;
47760;SDS011;33524;55.434;38.520;2024-02-04T08:52:30;5.40;;;4.45;;
47760;SDS011;33524;55.434;38.520;2024-02-04T08:54:59;5.28;;;4.05;;
47760;SDS011;33524;55.434;38.520;2024-02-04T08:57:29;6.72;;;4.70;;
47760;SDS011;33524;55.434;38.520;2024-02-04T08:59:59;5.93;;;4.35;;
47760;SDS011;33524;55.434;38.520;2024-02-04T09:02:30;7.12;;;4.55;;
47760;SDS011;33524;55.434;38.520;2024-02-04T09:04:59;6.97;;;4.62;;
47760;SDS011;33524;55.434;38.520;2024-02-04T09:07:29;5.40;;;4.10;;
47760;SDS011;33524;55.434;38.520;2024-02-04T09:10:01;6.45;;;4.15;;
47760;SDS011;33524;55.434;38.520;2024-02-04T09:12:29;4.87;;;4.00;;
47760;SDS011;33524;55.434;38.520;2024-02-04T09:14:58;4.50;;;2.85;;
47760;SDS011;33524;55.434;38.520;2024-02-04T09:17:29;4.60;;;3.40;;
47760;SDS011;33524;55.434;38.520;2024-02-04T09:20:00;5.72;;;3.67;;
47760;SDS011;33524;55.434;38.520;2024-02-04T09:22:30;4.35;;;3.20;;
47760;SDS011;33524;55.434;38.520;2024-02-04T09:24:59;3.80;;;2.70;;
47760;SDS011;33524;55.434;38.520;2024-02-04T09:27:30;9.35;;;3.62;;
47760;SDS011;33524;55.434;38.520;2024-02-04T09:29:59;5.12;;;3.83;;
47760;SDS011;33524;55.434;38.520;2024-02-04T09:32:29;4.62;;;3.00;;
47760;SDS011;33524;55.434;38.520;2024-02-04T09:34:59;4.95;;;3.45;;
47760;SDS011;33524;55.434;38.520;2024-02-04T09:37:29;6.37;;;3.25;;
47760;SDS011;33524;55.434;38.520;2024-02-04T09:39:59;3.65;;;2.42;;
47760;SDS011;33524;55.434;38.520;2024-02-04T09:42:29;3.85;;;2.60;;
47760;SDS011;33524;55.434;38.520;2024-02-04T09:44:59;2.33;;;1.90;;
47760;SDS011;33524;55.434;38.520;2024-02-04T09:47:31;3.62;;;2.28;;
47760;SDS011;33524;55.434;38.520;2024-02-04T09:50:05;5.60;;;2.75;;
47760;SDS011;33524;55.434;38.520;2024-02-04T09:52:34;5.37;;;3.05;;
47760;SDS011;33524;55.434;38.520;2024-02-04T09:55:12;5.43;;;3.20;;
47760;SDS011;33524;55.434;38.520;2024-02-04T09:57:45;6.85;;;3.75;;
47760;SDS011;33524;55.434;38.520;2024-02-04T10:00:14;7.43;;;3.95;;
47760;SDS011;33524;55.434;38.520;2024-02-04T10:02:49;6.45;;;3.55;;
47760;SDS011;33524;55.434;38.520;2024-02-04T10:05:18;7.12;;;4.03;;
47760;SDS011;33524;55.434;38.520;2024-02-04T10:07:47;6.72;;;4.05;;
47760;SDS011;33524;55.434;38.520;2024-02-04T10:10:17;8.75;;;4.80;;
47760;SDS011;33524;55.434;38.520;2024-02-04T10:12:47;9.95;;;5.95;;
47760;SDS011;33524;55.434;38.520;2024-02-04T10:15:16;8.65;;;5.05;;
47760;SDS011;33524;55.434;38.520;2024-02-04T10:17:45;9.13;;;5.55;;
47760;SDS011;33524;55.434;38.520;2024-02-04T10:20:16;11.88;;;6.07;;
47760;SDS011;33524;55.434;38.520;2024-02-04T10:22:47;8.25;;;4.50;;
47760;SDS011;33524;55.434;38.520;2024-02-04T10:25:19;10.20;;;5.78;;
47760;SDS011;33524;55.434;38.520;2024-02-04T10:27:49;9.80;;;5.30;;
47760;SDS011;33524;55.434;38.520;2024-02-04T10:30:19;16.23;;;8.02;;
47760;SDS011;33524;55.434;38.520;2024-02-04T10:33:02;11.93;;;5.95;;
47760;SDS011;33524;55.434;38.520;2024-02-04T10:35:31;16.95;;;6.47;;
47760;SDS011;33524;55.434;38.520;2024-02-04T10:38:00;9.05;;;5.00;;
47760;SDS011;33524;55.434;38.520;2024-02-04T10:40:29;9.68;;;5.43;;
47760;SDS011;33524;55.434;38.520;2024-02-04T10:43:00;5.78;;;3.47;;
47760;SDS011;33524;55.434;38.520;2024-02-04T10:45:34;8.73;;;4.87;;
47760;SDS011;33524;55.434;38.520;2024-02-04T10:50:37;10.60;;;5.18;;
47760;SDS011;33524;55.434;38.520;2024-02-04T10:53:07;9.45;;;4.80;;
47760;SDS011;33524;55.434;38.520;2024-02-04T10:55:41;9.02;;;3.92;;
47760;SDS011;33524;55.434;38.520;2024-02-04T10:58:13;10.45;;;5.72;;
47760;SDS011;33524;55.434;38.520;2024-02-04T11:00:43;9.20;;;4.30;;
47760;SDS011;33524;55.434;38.520;2024-02-04T11:03:13;10.77;;;5.75;;
47760;SDS011;33524;55.434;38.520;2024-02-04T11:05:45;10.48;;;5.60;;
47760;SDS011;33524;55.434;38.520;2024-02-04T11:08:16;8.48;;;2.83;;
47760;SDS011;33524;55.434;38.520;2024-02-04T11:10:46;9.05;;;4.45;;
47760;SDS011;33524;55.434;38.520;2024-02-04T11:13:15;10.57;;;4.47;;
47760;SDS011;33524;55.434;38.520;2024-02-04T11:15:47;9.32;;;3.92;;
47760;SDS011;33524;55.434;38.520;2024-02-04T11:27:13;10.10;;;3.30;;
47760;SDS011;33524;55.434;38.520;2024-02-04T11:29:44;6.95;;;3.80;;
47760;SDS011;33524;55.434;38.520;2024-02-04T11:32:13;5.10;;;2.70;;
47760;SDS011;33524;55.434;38.520;2024-02-04T11:34:46;13.20;;;4.60;;
47760;SDS011;33524;55.434;38.520;2024-02-04T11:37:16;5.53;;;2.83;;
47760;SDS011;33524;55.434;38.520;2024-02-04T11:39:50;6.43;;;2.45;;
47760;SDS011;33524;55.434;38.520;2024-02-04T11:42:22;7.10;;;2.97;;
47760;SDS011;33524;55.434;38.520;2024-02-04T11:45:06;9.10;;;3.33;;
47760;SDS011;33524;55.434;38.520;2024-02-04T11:47:36;8.48;;;3.03;;
47760;SDS011;33524;55.434;38.520;2024-02-04T11:50:06;6.25;;;3.17;;
47760;SDS011;33524;55.434;38.520;2024-02-04T11:52:39;7.93;;;2.83;;
47760;SDS011;33524;55.434;38.520;2024-02-04T11:55:14;7.35;;;3.28;;
47760;SDS011;33524;55.434;38.520;2024-02-04T11:57:44;8.18;;;3.28;;
47760;SDS011;33524;55.434;38.520;2024-02-04T12:00:15;8.77;;;3.20;;
47760;SDS011;33524;55.434;38.520;2024-02-04T12:02:46;9.98;;;4.75;;
47760;SDS011;33524;55.434;38.520;2024-02-04T12:05:16;6.30;;;2.62;;
47760;SDS011;33524;55.434;38.520;2024-02-04T12:07:46;6.50;;;2.95;;
47760;SDS011;33524;55.434;38.520;2024-02-04T12:10:15;9.82;;;3.72;;
47760;SDS011;33524;55.434;38.520;2024-02-04T12:12:46;7.37;;;2.65;;
47760;SDS011;33524;55.434;38.520;2024-02-04T12:15:16;12.77;;;4.03;;
47760;SDS011;33524;55.434;38.520;2024-02-04T12:17:46;8.38;;;4.25;;
47760;SDS011;33524;55.434;38.520;2024-02-04T12:20:16;9.27;;;4.22;;
47760;SDS011;33524;55.434;38.520;2024-02-04T12:22:46;9.15;;;2.53;;
47760;SDS011;33524;55.434;38.520;2024-02-04T12:25:17;6.50;;;3.05;;
47760;SDS011;33524;55.434;38.520;2024-02-04T12:27:47;5.65;;;3.35;;
47760;SDS011;33524;55.434;38.520;2024-02-04T12:30:18;6.97;;;2.60;;
47760;SDS011;33524;55.434;38.520;2024-02-04T12:33:02;6.57;;;3.22;;
47760;SDS011;33524;55.434;38.520;2024-02-04T12:35:35;7.12;;;2.85;;
47760;SDS011;33524;55.434;38.520;2024-02-04T12:38:05;9.25;;;2.70;;
47760;SDS011;33524;55.434;38.520;2024-02-04T12:40:35;9.57;;;4.78;;
47760;SDS011;33524;55.434;38.520;2024-02-04T12:43:04;9.63;;;2.90;;
47760;SDS011;33524;55.434;38.520;2024-02-04T12:45:34;5.20;;;2.70;;
47760;SDS011;33524;55.434;38.520;2024-02-04T12:48:03;4.25;;;2.42;;
47760;SDS011;33524;55.434;38.520;2024-02-04T12:50:36;11.77;;;3.70;;
47760;SDS011;33524;55.434;38.520;2024-02-04T12:53:07;9.65;;;3.30;;
47760;SDS011;33524;55.434;38.520;2024-02-04T12:55:41;10.82;;;3.37;;
47760;SDS011;33524;55.434;38.520;2024-02-04T12:58:11;5.35;;;1.98;;
47760;SDS011;33524;55.434;38.520;2024-02-04T13:00:46;7.68;;;2.75;;
47760;SDS011;33524;55.434;38.520;2024-02-04T13:03:15;6.20;;;2.85;;
47760;SDS011;33524;55.434;38.520;2024-02-04T13:05:45;4.28;;;1.87;;
47760;SDS011;33524;55.434;38.520;2024-02-04T13:08:15;4.22;;;1.73;;
47760;SDS011;33524;55.434;38.520;2024-02-04T13:10:53;7.75;;;1.87;;
47760;SDS011;33524;55.434;38.520;2024-02-04T13:13:24;4.95;;;2.15;;
47760;SDS011;33524;55.434;38.520;2024-02-04T13:15:57;6.97;;;2.72;;
47760;SDS011;33524;55.434;38.520;2024-02-04T13:18:26;10.63;;;2.87;;
47760;SDS011;33524;55.434;38.520;2024-02-04T13:20:56;6.43;;;3.28;;
47760;SDS011;33524;55.434;38.520;2024-02-04T13:23:26;6.05;;;2.90;;
47760;SDS011;33524;55.434;38.520;2024-02-04T13:25:55;3.62;;;2.05;;
47760;SDS011;33524;55.434;38.520;2024-02-04T13:28:24;4.60;;;2.10;;
47760;SDS011;33524;55.434;38.520;2024-02-04T13:30:53;6.43;;;1.83;;
47760;SDS011;33524;55.434;38.520;2024-02-04T13:33:26;2.13;;;1.50;;
47760;SDS011;33524;55.434;38.520;2024-02-04T13:35:55;3.20;;;1.67;;
47760;SDS011;33524;55.434;38.520;2024-02-04T13:38:25;3.30;;;2.03;;
47760;SDS011;33524;55.434;38.520;2024-02-04T13:40:54;2.20;;;1.80;;
47760;SDS011;33524;55.434;38.520;2024-02-04T13:43:23;5.28;;;1.65;;
47760;SDS011;33524;55.434;38.520;2024-02-04T13:45:53;3.75;;;1.92;;
47760;SDS011;33524;55.434;38.520;2024-02-04T13:48:22;3.22;;;1.87;;
47760;SDS011;33524;55.434;38.520;2024-02-04T13:50:53;3.62;;;1.98;;
47760;SDS011;33524;55.434;38.520;2024-02-04T13:53:22;5.62;;;1.70;;
47760;SDS011;33524;55.434;38.520;2024-02-04T13:55:53;4.95;;;2.40;;
47760;SDS011;33524;55.434;38.520;2024-02-04T13:58:26;5.60;;;2.25;;
47760;SDS011;33524;55.434;38.520;2024-02-04T14:00:56;5.03;;;2.08;;
47760;SDS011;33524;55.434;38.520;2024-02-04T14:03:26;6.62;;;2.12;;
47760;SDS011;33524;55.434;38.520;2024-02-04T14:05:55;5.55;;;2.47;;
47760;SDS011;33524;55.434;38.520;2024-02-04T14:08:36;6.07;;;3.50;;
47760;SDS011;33524;55.434;38.520;2024-02-04T14:11:05;6.82;;;3.60;;
47760;SDS011;33524;55.434;38.520;2024-02-04T14:13:34;5.12;;;3.28;;
47760;SDS011;33524;55.434;38.520;2024-02-04T14:16:04;5.37;;;3.33;;
47760;SDS011;33524;55.434;38.520;2024-02-04T14:18:34;7.45;;;4.72;;
47760;SDS011;33524;55.434;38.520;2024-02-04T14:21:03;7.03;;;3.95;;
47760;SDS011;33524;55.434;38.520;2024-02-04T14:23:35;6.95;;;4.05;;
47760;SDS011;33524;55.434;38.520;2024-02-04T14:26:04;8.70;;;5.15;;
47760;SDS011;33524;55.434;38.520;2024-02-04T14:28:36;5.55;;;4.15;;
47760;SDS011;33524;55.434;38.520;2024-02-04T14:31:09;7.37;;;4.37;;
47760;SDS011;33524;55.434;38.520;2024-02-04T14:33:44;6.47;;;3.75;;
47760;SDS011;33524;55.434;38.520;2024-02-04T14:36:16;4.07;;;2.72;;
47760;SDS011;33524;55.434;38.520;2024-02-04T14:38:46;6.55;;;3.33;;
47760;SDS011;33524;55.434;38.520;2024-02-04T14:41:15;4.60;;;3.03;;
47760;SDS011;33524;55.434;38.520;2024-02-04T14:43:45;9.43;;;4.22;;
47760;SDS011;33524;55.434;38.520;2024-02-04T14:46:14;3.17;;;2.67;;
47760;SDS011;33524;55.434;38.520;2024-02-04T14:48:44;4.37;;;2.65;;
47760;SDS011;33524;55.434;38.520;2024-02-04T14:51:13;3.65;;;2.62;;
47760;SDS011;33524;55.434;38.520;2024-02-04T14:53:46;4.53;;;2.97;;
47760;SDS011;33524;55.434;38.520;2024-02-04T14:56:15;6.55;;;3.33;;
47760;SDS011;33524;55.434;38.520;2024-02-04T14:58:44;8.40;;;4.53;;
47760;SDS011;33524;55.434;38.520;2024-02-04T15:01:23;7.53;;;3.62;;
47760;SDS011;33524;55.434;38.520;2024-02-04T15:03:54;11.00;;;4.82;;